East Tawas, Michigan
Current Conditions -  °F | °C
As of 11:13 AM on Monday 22 Dec 2014 (Local Time) from KOSC Reporting Station
Overcast Overcast  
Wind Chill: 29°   Ceiling: 2300
Heat Index: 33°   Visibility: 10mi
Dew Point: 28°   Wind: 5mph
Humidity: 80%   Direction: 180°S
Pressure: 30.1"   Gusts: NA
Location:  44.28°N, 83.49°W
Report Text: KOSC 221613Z AUTO 18004KT 10SM OVC023 00/M02 A3010 RMK AO2 T00061025
Loading
Personal Weather Stations






























Interactive Weather Map New forecast layout! Learn more

10-Day Weather Forecast

Advertisements
Track Severe Weather on mobile